sensor_id;sensor_type;location;lat;lon;timestamp;pressure;altitude;pressure_sealevel;temperature;humidity
48778;BME280;34578;0.000;0.000;2023-02-24T00:04:44;96164.63;;;16.76;55.50
48778;BME280;34578;0.000;0.000;2023-02-24T00:09:50;96160.41;;;16.73;55.67
48778;BME280;34578;0.000;0.000;2023-02-24T00:14:51;96158.75;;;16.74;55.88
48778;BME280;34578;0.000;0.000;2023-02-24T00:19:51;96151.16;;;16.74;55.48
48778;BME280;34578;0.000;0.000;2023-02-24T00:24:52;96146.97;;;16.73;55.36
48778;BME280;34578;0.000;0.000;2023-02-24T00:29:52;96147.81;;;16.72;55.60
48778;BME280;34578;0.000;0.000;2023-02-24T00:34:57;96136.84;;;16.70;55.41
48778;BME280;34578;0.000;0.000;2023-02-24T00:39:58;96145.28;;;16.72;55.67
48778;BME280;34578;0.000;0.000;2023-02-24T00:44:58;96140.22;;;16.72;55.56
48778;BME280;34578;0.000;0.000;2023-02-24T00:49:59;96125.06;;;16.72;55.48
48778;BME280;34578;0.000;0.000;2023-02-24T00:55:00;96136.00;;;16.70;55.46
48778;BME280;34578;0.000;0.000;2023-02-24T01:00:02;96143.56;;;16.71;55.49
48778;BME280;34578;0.000;0.000;2023-02-24T01:05:10;96131.78;;;16.73;55.19
48778;BME280;34578;0.000;0.000;2023-02-24T01:10:11;96129.25;;;16.74;55.36
48778;BME280;34578;0.000;0.000;2023-02-24T01:15:13;96130.09;;;16.75;55.02
48778;BME280;34578;0.000;0.000;2023-02-24T01:20:15;96120.84;;;16.74;55.14
48778;BME280;34578;0.000;0.000;2023-02-24T01:25:17;96115.78;;;16.71;55.63
48778;BME280;34578;0.000;0.000;2023-02-24T01:30:19;96103.13;;;16.73;55.26
48778;BME280;34578;0.000;0.000;2023-02-24T01:35:20;96099.78;;;16.69;54.64
48778;BME280;34578;0.000;0.000;2023-02-24T01:40:21;96098.94;;;16.69;55.04
48778;BME280;34578;0.000;0.000;2023-02-24T01:45:27;96098.06;;;16.71;54.89
48778;BME280;34578;0.000;0.000;2023-02-24T01:50:30;96097.25;;;16.69;55.00
48778;BME280;34578;0.000;0.000;2023-02-24T01:55:36;96094.72;;;16.69;54.55
48778;BME280;34578;0.000;0.000;2023-02-24T02:00:40;96105.66;;;16.71;55.07
48778;BME280;34578;0.000;0.000;2023-02-24T02:05:47;96093.91;;;16.69;54.89
48778;BME280;34578;0.000;0.000;2023-02-24T02:10:49;96089.66;;;16.69;54.69
48778;BME280;34578;0.000;0.000;2023-02-24T02:32:17;96076.19;;;16.70;54.94
48778;BME280;34578;0.000;0.000;2023-02-24T02:37:26;96071.13;;;16.70;55.31
48778;BME280;34578;0.000;0.000;2023-02-24T02:43:17;96075.34;;;16.70;54.46
48778;BME280;34578;0.000;0.000;2023-02-24T02:48:29;96070.28;;;16.68;54.68
48778;BME280;34578;0.000;0.000;2023-02-24T02:53:39;96072.00;;;16.66;54.67
48778;BME280;34578;0.000;0.000;2023-02-24T02:58:45;96072.81;;;16.68;54.64
48778;BME280;34578;0.000;0.000;2023-02-24T03:04:04;96071.16;;;16.69;54.80
48778;BME280;34578;0.000;0.000;2023-02-24T03:09:09;96079.56;;;16.67;54.85
48778;BME280;34578;0.000;0.000;2023-02-24T03:14:16;96072.81;;;16.68;54.96
48778;BME280;34578;0.000;0.000;2023-02-24T03:19:23;96075.34;;;16.67;54.88
48778;BME280;34578;0.000;0.000;2023-02-24T03:24:25;96074.50;;;16.67;54.57
48778;BME280;34578;0.000;0.000;2023-02-24T03:29:44;96066.06;;;16.73;54.58
48778;BME280;34578;0.000;0.000;2023-02-24T03:34:54;96060.16;;;16.73;54.45
48778;BME280;34578;0.000;0.000;2023-02-24T03:40:02;96067.75;;;16.71;54.51
48778;BME280;34578;0.000;0.000;2023-02-24T03:45:16;96072.81;;;16.71;54.71
48778;BME280;34578;0.000;0.000;2023-02-24T03:50:18;96071.97;;;16.71;54.67
48778;BME280;34578;0.000;0.000;2023-02-24T03:55:44;96075.34;;;16.68;54.60
48778;BME280;34578;0.000;0.000;2023-02-24T04:06:30;96066.09;;;16.67;54.50
48778;BME280;34578;0.000;0.000;2023-02-24T04:11:55;96063.56;;;16.69;54.44
48778;BME280;34578;0.000;0.000;2023-02-24T04:17:31;96061.88;;;16.66;54.47
48778;BME280;34578;0.000;0.000;2023-02-24T04:22:35;96054.31;;;16.66;54.48
48778;BME280;34578;0.000;0.000;2023-02-24T04:27:36;96055.13;;;16.67;54.24
48778;BME280;34578;0.000;0.000;2023-02-24T04:32:46;96048.41;;;16.66;54.35
48778;BME280;34578;0.000;0.000;2023-02-24T04:37:48;96032.38;;;16.67;54.45
48778;BME280;34578;0.000;0.000;2023-02-24T04:42:51;96029.84;;;16.67;54.47
48778;BME280;34578;0.000;0.000;2023-02-24T04:47:54;96027.31;;;16.73;53.78
48778;BME280;34578;0.000;0.000;2023-02-24T04:52:57;96019.72;;;16.71;54.27
48778;BME280;34578;0.000;0.000;2023-02-24T04:58:00;96013.84;;;16.72;54.12
48778;BME280;34578;0.000;0.000;2023-02-24T05:03:05;96003.72;;;16.73;53.67
48778;BME280;34578;0.000;0.000;2023-02-24T05:08:08;96002.03;;;16.74;53.67
48778;BME280;34578;0.000;0.000;2023-02-24T05:13:12;95997.00;;;16.74;53.50
48778;BME280;34578;0.000;0.000;2023-02-24T05:18:14;95980.97;;;16.77;53.92
48778;BME280;34578;0.000;0.000;2023-02-24T05:23:16;95969.97;;;16.79;53.22
48778;BME280;34578;0.000;0.000;2023-02-24T05:28:16;95960.72;;;16.79;53.57
48778;BME280;34578;0.000;0.000;2023-02-24T05:33:17;95946.38;;;16.81;53.16
48778;BME280;34578;0.000;0.000;2023-02-24T05:38:20;95948.91;;;16.81;53.36
48778;BME280;34578;0.000;0.000;2023-02-24T05:43:21;95943.00;;;16.84;53.27
48778;BME280;34578;0.000;0.000;2023-02-24T05:48:23;95943.00;;;16.84;54.18
48778;BME280;34578;0.000;0.000;2023-02-24T05:53:24;95936.22;;;16.92;54.43
48778;BME280;34578;0.000;0.000;2023-02-24T05:58:24;95944.63;;;16.94;56.21
48778;BME280;34578;0.000;0.000;2023-02-24T06:03:28;95937.88;;;16.93;55.86
48778;BME280;34578;0.000;0.000;2023-02-24T06:08:31;95944.66;;;16.88;55.76
48778;BME280;34578;0.000;0.000;2023-02-24T06:13:41;95955.63;;;16.87;55.92
48778;BME280;34578;0.000;0.000;2023-02-24T06:18:47;95951.41;;;16.86;56.39
48778;BME280;34578;0.000;0.000;2023-02-24T06:23:50;95959.03;;;16.83;55.80
48778;BME280;34578;0.000;0.000;2023-02-24T06:28:52;95961.53;;;16.80;55.39
48778;BME280;34578;0.000;0.000;2023-02-24T06:33:53;95966.59;;;16.80;55.70
48778;BME280;34578;0.000;0.000;2023-02-24T06:38:53;95967.47;;;16.82;55.96
48778;BME280;34578;0.000;0.000;2023-02-24T06:43:54;95969.13;;;16.80;56.28
48778;BME280;34578;0.000;0.000;2023-02-24T06:48:54;95971.63;;;16.84;54.43
48778;BME280;34578;0.000;0.000;2023-02-24T06:53:57;95960.66;;;16.88;54.93
48778;BME280;34578;0.000;0.000;2023-02-24T06:58:58;95949.75;;;16.82;54.45
48778;BME280;34578;0.000;0.000;2023-02-24T07:03:59;95951.50;;;16.68;54.37
48778;BME280;34578;0.000;0.000;2023-02-24T07:09:19;95949.84;;;16.66;53.22
48778;BME280;34578;0.000;0.000;2023-02-24T07:14:23;95939.72;;;16.72;53.04
48778;BME280;34578;0.000;0.000;2023-02-24T07:19:29;95931.22;;;16.80;53.15
48778;BME280;34578;0.000;0.000;2023-02-24T07:24:34;95931.22;;;16.80;54.37
48778;BME280;34578;0.000;0.000;2023-02-24T07:29:36;95916.91;;;16.82;54.61
48778;BME280;34578;0.000;0.000;2023-02-24T07:34:36;95917.72;;;16.84;54.43
48778;BME280;34578;0.000;0.000;2023-02-24T07:39:40;95918.53;;;16.86;53.68
48778;BME280;34578;0.000;0.000;2023-02-24T07:44:42;95905.09;;;16.82;54.21
48778;BME280;34578;0.000;0.000;2023-02-24T07:49:44;95897.53;;;16.81;53.95
48778;BME280;34578;0.000;0.000;2023-02-24T07:54:45;95901.72;;;16.85;53.70
48778;BME280;34578;0.000;0.000;2023-02-24T07:59:45;95910.13;;;16.87;53.55
48778;BME280;34578;0.000;0.000;2023-02-24T08:04:48;95915.16;;;16.87;53.15
48778;BME280;34578;0.000;0.000;2023-02-24T08:09:50;95914.31;;;16.88;53.54
48778;BME280;34578;0.000;0.000;2023-02-24T08:15:10;95900.84;;;16.86;52.60
48778;BME280;34578;0.000;0.000;2023-02-24T08:20:16;95907.59;;;16.90;53.05
48778;BME280;34578;0.000;0.000;2023-02-24T08:25:18;95891.56;;;16.89;53.58
48778;BME280;34578;0.000;0.000;2023-02-24T08:30:19;95889.84;;;16.91;53.85
48778;BME280;34578;0.000;0.000;2023-02-24T08:35:27;95878.91;;;16.89;53.02
48778;BME280;34578;0.000;0.000;2023-02-24T08:40:34;95862.03;;;16.91;53.12
48778;BME280;34578;0.000;0.000;2023-02-24T08:45:34;95853.63;;;16.91;52.89
48778;BME280;34578;0.000;0.000;2023-02-24T08:50:37;95854.50;;;16.90;53.38
48778;BME280;34578;0.000;0.000;2023-02-24T08:55:38;95862.09;;;16.90;53.80
48778;BME280;34578;0.000;0.000;2023-02-24T09:00:41;95853.63;;;16.91;53.50
48778;BME280;34578;0.000;0.000;2023-02-24T09:11:00;95853.63;;;16.91;53.60
48778;BME280;34578;0.000;0.000;2023-02-24T09:16:06;95841.00;;;16.91;54.26
48778;BME280;34578;0.000;0.000;2023-02-24T09:21:15;95846.03;;;16.92;54.18
48778;BME280;34578;0.000;0.000;2023-02-24T09:26:35;95854.47;;;16.94;53.83
48778;BME280;34578;0.000;0.000;2023-02-24T09:31:42;95841.78;;;16.97;53.48
48778;BME280;34578;0.000;0.000;2023-02-24T09:36:54;95848.50;;;16.97;54.42
48778;BME280;34578;0.000;0.000;2023-02-24T09:42:02;95838.41;;;16.97;54.13
48778;BME280;34578;0.000;0.000;2023-02-24T09:47:17;95840.09;;;16.96;54.03
48778;BME280;34578;0.000;0.000;2023-02-24T09:52:31;95829.13;;;16.97;54.26
48778;BME280;34578;0.000;0.000;2023-02-24T09:57:47;95821.56;;;16.97;54.14
48778;BME280;34578;0.000;0.000;2023-02-24T10:03:24;95810.59;;;16.98;53.31
48778;BME280;34578;0.000;0.000;2023-02-24T10:08:47;95810.59;;;17.01;53.48
48778;BME280;34578;0.000;0.000;2023-02-24T10:13:52;95788.59;;;17.06;52.85
48778;BME280;34578;0.000;0.000;2023-02-24T10:19:04;95796.19;;;17.05;53.46
48778;BME280;34578;0.000;0.000;2023-02-24T10:24:43;95796.34;;;16.87;52.35
48778;BME280;34578;0.000;0.000;2023-02-24T10:30:02;95786.25;;;16.87;52.25
48778;BME280;34578;0.000;0.000;2023-02-24T10:35:07;95786.16;;;16.97;52.98
48778;BME280;34578;0.000;0.000;2023-02-24T10:40:13;95784.44;;;17.02;53.99
48778;BME280;34578;0.000;0.000;2023-02-24T10:45:25;95775.16;;;17.03;54.81
48778;BME280;34578;0.000;0.000;2023-02-24T10:50:40;95762.53;;;17.00;54.75
48778;BME280;34578;0.000;0.000;2023-02-24T10:55:46;95757.44;;;17.06;53.68
48778;BME280;34578;0.000;0.000;2023-02-24T11:00:47;95765.84;;;17.08;54.45
48778;BME280;34578;0.000;0.000;2023-02-24T11:06:18;95754.91;;;17.06;55.78
48778;BME280;34578;0.000;0.000;2023-02-24T11:11:48;95750.69;;;17.05;55.33
48778;BME280;34578;0.000;0.000;2023-02-24T11:17:18;95743.94;;;17.04;54.42
48778;BME280;34578;0.000;0.000;2023-02-24T11:22:23;95741.47;;;17.01;54.02
48778;BME280;34578;0.000;0.000;2023-02-24T11:27:26;95721.25;;;16.99;55.05
48778;BME280;34578;0.000;0.000;2023-02-24T11:32:57;95711.97;;;17.01;53.91
48778;BME280;34578;0.000;0.000;2023-02-24T11:38:26;95702.66;;;17.03;55.22
48778;BME280;34578;0.000;0.000;2023-02-24T11:43:31;95703.50;;;17.04;55.25
48778;BME280;34578;0.000;0.000;2023-02-24T11:48:42;95695.84;;;17.10;54.33
48778;BME280;34578;0.000;0.000;2023-02-24T11:59:05;95673.03;;;17.13;55.22
48778;BME280;34578;0.000;0.000;2023-02-24T12:04:18;95668.03;;;17.11;54.04
48778;BME280;34578;0.000;0.000;2023-02-24T12:09:24;95661.41;;;17.00;54.13
48778;BME280;34578;0.000;0.000;2023-02-24T12:14:40;95658.09;;;16.95;54.98
48778;BME280;34578;0.000;0.000;2023-02-24T12:19:48;95656.34;;;17.01;54.64
48778;BME280;34578;0.000;0.000;2023-02-24T12:24:51;95645.53;;;16.89;53.94
48778;BME280;34578;0.000;0.000;2023-02-24T12:45:16;95632.00;;;16.93;55.44
48778;BME280;34578;0.000;0.000;2023-02-24T12:55:56;95617.63;;;16.96;55.47
48778;BME280;34578;0.000;0.000;2023-02-24T13:01:31;95607.41;;;17.07;54.15
48778;BME280;34578;0.000;0.000;2023-02-24T13:17:25;95593.09;;;17.03;55.05
48778;BME280;34578;0.000;0.000;2023-02-24T13:22:31;95587.19;;;17.04;55.30
48778;BME280;34578;0.000;0.000;2023-02-24T13:27:56;95586.38;;;17.03;55.54
48778;BME280;34578;0.000;0.000;2023-02-24T13:33:06;95569.53;;;17.02;54.15
48778;BME280;34578;0.000;0.000;2023-02-24T13:38:34;95567.75;;;17.07;53.45
48778;BME280;34578;0.000;0.000;2023-02-24T13:43:36;95556.81;;;17.07;54.36
48778;BME280;34578;0.000;0.000;2023-02-24T14:04:24;95536.53;;;17.10;53.61
48778;BME280;34578;0.000;0.000;2023-02-24T14:09:29;95533.09;;;17.17;55.55
48778;BME280;34578;0.000;0.000;2023-02-24T14:14:31;95530.47;;;17.21;55.81
48778;BME280;34578;0.000;0.000;2023-02-24T14:19:32;95516.25;;;17.13;54.53
48778;BME280;34578;0.000;0.000;2023-02-24T14:24:32;95520.50;;;17.11;54.28
48778;BME280;34578;0.000;0.000;2023-02-24T14:29:34;95506.25;;;17.07;55.35
48778;BME280;34578;0.000;0.000;2023-02-24T14:34:37;95501.13;;;17.10;55.37
48778;BME280;34578;0.000;0.000;2023-02-24T14:39:37;95499.47;;;17.09;55.45
48778;BME280;34578;0.000;0.000;2023-02-24T14:44:44;95486.84;;;17.09;54.98
48778;BME280;34578;0.000;0.000;2023-02-24T14:49:59;95481.78;;;17.07;55.20
48778;BME280;34578;0.000;0.000;2023-02-24T14:55:09;95480.13;;;17.06;54.55
48778;BME280;34578;0.000;0.000;2023-02-24T15:00:16;95479.31;;;17.06;55.65
48778;BME280;34578;0.000;0.000;2023-02-24T15:05:21;95481.84;;;17.06;55.52
48778;BME280;34578;0.000;0.000;2023-02-24T15:10:24;95472.53;;;17.06;55.86
48778;BME280;34578;0.000;0.000;2023-02-24T15:15:27;95471.69;;;17.07;55.28
48778;BME280;34578;0.000;0.000;2023-02-24T15:20:32;95459.75;;;17.15;54.62
48778;BME280;34578;0.000;0.000;2023-02-24T15:25:44;95458.91;;;17.16;55.33
48778;BME280;34578;0.000;0.000;2023-02-24T15:31:03;95458.16;;;17.10;54.93
48778;BME280;34578;0.000;0.000;2023-02-24T15:36:10;95458.16;;;17.10;56.09
48778;BME280;34578;0.000;0.000;2023-02-24T15:41:12;95448.91;;;17.09;55.97
48778;BME280;34578;0.000;0.000;2023-02-24T15:51:39;95443.84;;;17.07;56.28
48778;BME280;34578;0.000;0.000;2023-02-24T15:56:40;95432.06;;;17.08;55.72
48778;BME280;34578;0.000;0.000;2023-02-24T16:01:41;95431.22;;;17.07;55.89
48778;BME280;34578;0.000;0.000;2023-02-24T16:06:43;95422.81;;;17.07;55.83
48778;BME280;34578;0.000;0.000;2023-02-24T16:11:53;95410.19;;;17.07;56.22
48778;BME280;34578;0.000;0.000;2023-02-24T16:16:54;95408.44;;;17.09;55.08
48778;BME280;34578;0.000;0.000;2023-02-24T16:21:54;95406.00;;;17.03;55.34
48778;BME280;34578;0.000;0.000;2023-02-24T16:26:54;95401.06;;;16.95;53.37
48778;BME280;34578;0.000;0.000;2023-02-24T16:31:55;95396.69;;;17.05;52.95
48778;BME280;34578;0.000;0.000;2023-02-24T16:36:55;95396.59;;;17.11;52.03
48778;BME280;34578;0.000;0.000;2023-02-24T16:41:55;95396.66;;;17.08;48.55
48778;BME280;34578;0.000;0.000;2023-02-24T16:46:56;95404.25;;;17.08;48.06
48778;BME280;34578;0.000;0.000;2023-02-24T16:51:56;95395.81;;;17.09;47.54
48778;BME280;34578;0.000;0.000;2023-02-24T16:56:57;95405.13;;;17.07;51.82
48778;BME280;34578;0.000;0.000;2023-02-24T17:01:57;95398.41;;;17.06;48.70
48778;BME280;34578;0.000;0.000;2023-02-24T17:07:00;95391.63;;;17.05;48.17
48778;BME280;34578;0.000;0.000;2023-02-24T17:12:01;95384.91;;;17.04;48.30
48778;BME280;34578;0.000;0.000;2023-02-24T17:17:01;95389.13;;;17.05;48.73
48778;BME280;34578;0.000;0.000;2023-02-24T17:22:04;95389.16;;;17.03;49.38
48778;BME280;34578;0.000;0.000;2023-02-24T17:27:05;95390.84;;;17.03;49.49
48778;BME280;34578;0.000;0.000;2023-02-24T17:32:06;95398.41;;;17.03;48.99
48778;BME280;34578;0.000;0.000;2023-02-24T17:37:07;95398.41;;;17.03;48.65
48778;BME280;34578;0.000;0.000;2023-02-24T17:42:07;95386.50;;;17.11;51.77
48778;BME280;34578;0.000;0.000;2023-02-24T17:47:07;95388.28;;;17.06;52.34
48778;BME280;34578;0.000;0.000;2023-02-24T17:52:08;95395.88;;;17.06;49.91
48778;BME280;34578;0.000;0.000;2023-02-24T17:57:08;95408.50;;;17.06;48.11
48778;BME280;34578;0.000;0.000;2023-02-24T18:02:10;95391.69;;;17.02;47.16
48778;BME280;34578;0.000;0.000;2023-02-24T18:07:11;95395.03;;;17.04;47.72
48778;BME280;34578;0.000;0.000;2023-02-24T18:12:11;95407.66;;;17.04;47.79
48778;BME280;34578;0.000;0.000;2023-02-24T18:17:13;95408.50;;;17.06;47.55
48778;BME280;34578;0.000;0.000;2023-02-24T18:22:13;95403.44;;;17.06;48.36
48778;BME280;34578;0.000;0.000;2023-02-24T18:27:14;95392.50;;;17.04;47.97
48778;BME280;34578;0.000;0.000;2023-02-24T18:32:14;95394.22;;;17.03;50.03
48778;BME280;34578;0.000;0.000;2023-02-24T18:37:15;95394.16;;;17.08;48.95
48778;BME280;34578;0.000;0.000;2023-02-24T18:42:15;95395.81;;;17.09;49.38
48778;BME280;34578;0.000;0.000;2023-02-24T18:47:15;95395.75;;;17.12;50.09
48778;BME280;34578;0.000;0.000;2023-02-24T18:52:16;95384.69;;;17.19;53.10
48778;BME280;34578;0.000;0.000;2023-02-24T18:57:16;95388.00;;;17.21;52.85
48778;BME280;34578;0.000;0.000;2023-02-24T19:02:17;95396.53;;;17.17;50.78
48778;BME280;34578;0.000;0.000;2023-02-24T19:07:17;95393.22;;;17.12;51.23
48778;BME280;34578;0.000;0.000;2023-02-24T19:12:18;95383.97;;;17.11;50.55
48778;BME280;34578;0.000;0.000;2023-02-24T19:17:19;95389.03;;;17.11;50.18
48778;BME280;34578;0.000;0.000;2023-02-24T19:22:20;95389.81;;;17.13;50.11
48778;BME280;34578;0.000;0.000;2023-02-24T19:27:20;95395.72;;;17.15;50.38
48778;BME280;34578;0.000;0.000;2023-02-24T19:32:20;95396.59;;;17.14;50.62
48778;BME280;34578;0.000;0.000;2023-02-24T19:37:22;95415.94;;;17.15;50.74
48778;BME280;34578;0.000;0.000;2023-02-24T19:42:22;95396.59;;;17.14;50.94
48778;BME280;34578;0.000;0.000;2023-02-24T19:47:25;95398.19;;;17.16;51.41
48778;BME280;34578;0.000;0.000;2023-02-24T19:52:25;95405.78;;;17.18;51.72
48778;BME280;34578;0.000;0.000;2023-02-24T19:57:25;95396.44;;;17.21;51.03
48778;BME280;34578;0.000;0.000;2023-02-24T20:02:28;95393.81;;;17.27;54.27
48778;BME280;34578;0.000;0.000;2023-02-24T20:07:28;95397.16;;;17.29;55.31
48778;BME280;34578;0.000;0.000;2023-02-24T20:12:29;95397.22;;;17.25;52.91
48778;BME280;34578;0.000;0.000;2023-02-24T20:17:29;95396.44;;;17.23;51.36
48778;BME280;34578;0.000;0.000;2023-02-24T20:22:30;95403.19;;;17.21;51.23
48778;BME280;34578;0.000;0.000;2023-02-24T20:27:30;95421.72;;;17.23;51.13
48778;BME280;34578;0.000;0.000;2023-02-24T20:32:31;95430.13;;;17.22;50.95
48778;BME280;34578;0.000;0.000;2023-02-24T20:37:32;95431.06;;;17.19;50.77
48778;BME280;34578;0.000;0.000;2023-02-24T20:42:32;95432.72;;;17.20;50.69
48778;BME280;34578;0.000;0.000;2023-02-24T20:47:32;95431.88;;;17.20;50.29
48778;BME280;34578;0.000;0.000;2023-02-24T20:52:33;95444.50;;;17.21;50.44
48778;BME280;34578;0.000;0.000;2023-02-24T20:57:33;95445.31;;;17.22;49.97
48778;BME280;34578;0.000;0.000;2023-02-24T21:02:34;95451.28;;;17.19;49.86
48778;BME280;34578;0.000;0.000;2023-02-24T21:07:35;95441.13;;;17.21;50.34
48778;BME280;34578;0.000;0.000;2023-02-24T21:12:37;95420.78;;;17.28;54.47
48778;BME280;34578;0.000;0.000;2023-02-24T21:17:38;95446.88;;;17.32;54.93
48778;BME280;34578;0.000;0.000;2023-02-24T21:22:39;95445.22;;;17.28;51.23
48778;BME280;34578;0.000;0.000;2023-02-24T21:27:39;95464.66;;;17.24;50.56
48778;BME280;34578;0.000;0.000;2023-02-24T21:32:40;95468.06;;;17.25;50.59
48778;BME280;34578;0.000;0.000;2023-02-24T21:37:40;95480.72;;;17.22;50.45
48778;BME280;34578;0.000;0.000;2023-02-24T21:42:40;95483.25;;;17.22;50.43
48778;BME280;34578;0.000;0.000;2023-02-24T21:47:43;95481.59;;;17.21;50.07
48778;BME280;34578;0.000;0.000;2023-02-24T21:52:43;95490.03;;;17.20;50.07
48778;BME280;34578;0.000;0.000;2023-02-24T21:57:46;95513.66;;;17.20;50.55
48778;BME280;34578;0.000;0.000;2023-02-24T22:02:49;95524.56;;;17.21;50.47
48778;BME280;34578;0.000;0.000;2023-02-24T22:07:50;95545.66;;;17.21;50.36
48778;BME280;34578;0.000;0.000;2023-02-24T22:12:54;95552.38;;;17.22;50.27
48778;BME280;34578;0.000;0.000;2023-02-24T22:17:55;95539.81;;;17.18;50.52
48778;BME280;34578;0.000;0.000;2023-02-24T22:22:55;95561.59;;;17.26;54.98
48778;BME280;34578;0.000;0.000;2023-02-24T22:27:56;95567.38;;;17.34;56.16
48778;BME280;34578;0.000;0.000;2023-02-24T22:32:56;95563.31;;;17.26;52.00
48778;BME280;34578;0.000;0.000;2023-02-24T22:37:56;95563.34;;;17.23;51.33
48778;BME280;34578;0.000;0.000;2023-02-24T22:42:57;95565.03;;;17.22;50.99
48778;BME280;34578;0.000;0.000;2023-02-24T22:47:57;95568.41;;;17.23;51.61
48778;BME280;34578;0.000;0.000;2023-02-24T22:52:59;95572.63;;;17.22;51.27
48778;BME280;34578;0.000;0.000;2023-02-24T22:57:59;95581.88;;;17.22;51.19
48778;BME280;34578;0.000;0.000;2023-02-24T23:02:59;95600.44;;;17.21;50.78
48778;BME280;34578;0.000;0.000;2023-02-24T23:08:00;95614.81;;;17.20;51.02
48778;BME280;34578;0.000;0.000;2023-02-24T23:13:02;95597.97;;;17.19;51.08
48778;BME280;34578;0.000;0.000;2023-02-24T23:18:02;95590.38;;;17.18;51.07
48778;BME280;34578;0.000;0.000;2023-02-24T23:23:03;95593.72;;;17.21;50.98
48778;BME280;34578;0.000;0.000;2023-02-24T23:28:04;95570.09;;;17.21;51.50
48778;BME280;34578;0.000;0.000;2023-02-24T23:33:05;95567.50;;;17.27;55.67
48778;BME280;34578;0.000;0.000;2023-02-24T23:38:06;95562.38;;;17.30;56.22
48778;BME280;34578;0.000;0.000;2023-02-24T23:43:06;95576.75;;;17.28;52.51
48778;BME280;34578;0.000;0.000;2023-02-24T23:48:09;95556.59;;;17.23;52.67
48778;BME280;34578;0.000;0.000;2023-02-24T23:53:09;95541.41;;;17.22;51.89
48778;BME280;34578;0.000;0.000;2023-02-24T23:58:10;95544.81;;;17.21;52.49
